Millenium Maverick — WCD2866 — position and weather

sailwx.info

Track history (hours):
 
Tides and Currents Weather Stations Pressure Air Temp Water Temp Dewpoint Dewpoint Depression Visibility Wind Speed Wind Dir Waves Ship Positions

Millenium Maverick

Last reported at 2017-Sep-24 14:00 UTC. Time now 2017-Sep-24 14:10 UTC.
Position N 33°44' W 118°16'.

Length 29 m; draft 5.5 m.

Type: Towing. MMSI: 366998840.

Date/timePositionNaut miles runAvg speedWind from/ knotsBaromVisibWave heightAir tempDewpointWater temp
2017-Sep-24 14:00N 33°44' W 118°16'0 0.0
2017-Sep-24 13:30N 33°44' W 118°16'0 0.0
2017-Sep-24 13:00N 33°44' W 118°16'1 2.3
2017-Sep-24 12:30N 33°45' W 118°16'1 1.7
2017-Sep-24 12:00N 33°46' W 118°17'2 3.9
2017-Sep-24 11:30N 33°44' W 118°16'0 0.0
2017-Sep-24 11:01N 33°44' W 118°16'0 0.0
2017-Sep-24 10:30N 33°44' W 118°16'0 0.0
2017-Sep-24 10:00N 33°44' W 118°16'0 0.0
2017-Sep-24 09:30N 33°44' W 118°16'0 0.0
2017-Sep-24 09:00N 33°44' W 118°16'0 0.0
2017-Sep-24 08:30N 33°44' W 118°16'0 0.0
2017-Sep-24 08:01N 33°44' W 118°16'0 0.0
2017-Sep-24 06:58N 33°44' W 118°16'0 0.0
2017-Sep-24 06:30N 33°44' W 118°16'0 0.0
2017-Sep-24 05:58N 33°44' W 118°16'0 0.0
2017-Sep-24 05:30N 33°44' W 118°16'0 0.0
2017-Sep-24 05:01N 33°44' W 118°16'0 0.0
2017-Sep-24 04:30N 33°44' W 118°16'0 0.0
2017-Sep-24 04:01N 33°44' W 118°16'0 0.0
2017-Sep-24 03:30N 33°44' W 118°16'0 0.0
2017-Sep-24 03:00N 33°44' W 118°16'0 0.0
2017-Sep-24 02:30N 33°44' W 118°16'0 0.0
2017-Sep-24 01:57N 33°44' W 118°16'0 0.0
2017-Sep-24 01:30N 33°44' W 118°16'0 0.0
2017-Sep-24 01:00N 33°44' W 118°16'0 0.0
2017-Sep-24 00:30N 33°44' W 118°16'0 0.0
2017-Sep-24 00:01N 33°44' W 118°16'0 0.0
2017-Sep-23 23:30N 33°44' W 118°16'0 0.0
2017-Sep-23 23:00N 33°44' W 118°16'0 0.0
2017-Sep-23 22:30N 33°44' W 118°16'0 0.0
2017-Sep-23 21:58N 33°44' W 118°16'0 0.0
2017-Sep-23 21:30N 33°44' W 118°16'0 0.0
2017-Sep-23 21:00N 33°44' W 118°16'0 0.0
2017-Sep-23 20:29N 33°44' W 118°16'0 0.0
2017-Sep-23 19:58N 33°44' W 118°16'0 0.0
2017-Sep-22 01:34N 33°44' W 118°16'0 0.0
2017-Sep-22 01:11N 33°44' W 118°16'0 0.0
2017-Sep-22 00:46N 33°44' W 118°16'0 0.0
2017-Sep-22 00:23N 33°44' W 118°16'0 0.0
2017-Sep-21 23:57N 33°44' W 118°16'1 1.1
2017-Sep-21 23:29N 33°43' W 118°16'2 3.4
2017-Sep-21 22:55N 33°45' W 118°16'0 0.9
2017-Sep-21 22:28N 33°45' W 118°16'2 5.0
2017-Sep-21 21:58N 33°43' W 118°15'1 2.9
2017-Sep-21 21:30N 33°44' W 118°16'0 0.0
2017-Sep-21 20:57N 33°44' W 118°16'0 0.0
2017-Sep-21 20:25N 33°44' W 118°16'0 0.0
2017-Sep-21 19:45N 33°44' W 118°16'0 0.0
2017-Sep-21 19:26N 33°44' W 118°16'0 0.0
2017-Sep-21 18:47N 33°44' W 118°16'0 0.0
2017-Sep-21 18:30N 33°44' W 118°16'0 0.0
2017-Sep-21 17:58N 33°44' W 118°16'0 0.0
2017-Sep-21 17:30N 33°44' W 118°16'3 6.5
2017-Sep-21 17:00N 33°44' W 118°12'2 3.5
2017-Sep-21 16:30N 33°44' W 118°10'2 3.8
2017-Sep-21 15:59N 33°44' W 118°12'1 0.3
2017-Sep-21 14:12N 33°45' W 118°12'2 9.8
2017-Sep-21 14:00N 33°43' W 118°14'3 4.1
2017-Sep-21 13:15N 33°45' W 118°17'0 0.5
2017-Sep-21 12:54N 33°45' W 118°16'2 1.8
2017-Sep-21 12:04N 33°44' W 118°16'0 0.3
2017-Sep-21 11:51N 33°44' W 118°16'1 1.1
2017-Sep-21 11:15N 33°44' W 118°16'1 1.7
2017-Sep-21 10:31N 33°45' W 118°16'0 3.9
2017-Sep-21 10:27N 33°45' W 118°16'3 5.3
2017-Sep-21 09:58N 33°43' W 118°15'1 2.8
2017-Sep-21 09:28N 33°44' W 118°16'0 0.0
2017-Sep-21 08:52N 33°44' W 118°16'0 0.0
2017-Sep-21 08:27N 33°44' W 118°16'0 0.0
2017-Sep-21 07:46N 33°44' W 118°16'0 0.0
2017-Sep-21 07:27N 33°44' W 118°16'0 0.0
2017-Sep-21 06:46N 33°44' W 118°16'0 0.0
2017-Sep-21 06:30N 33°44' W 118°16'0 0.0
2017-Sep-21 06:00N 33°44' W 118°16'0 0.0
2017-Sep-21 05:19N 33°44' W 118°16'0 0.0
2017-Sep-21 04:59N 33°44' W 118°16'0 0.0
2017-Sep-21 04:21N 33°44' W 118°16'0 0.0
2017-Sep-21 03:55N 33°44' W 118°16'0 0.0
2017-Sep-21 03:28N 33°44' W 118°16'0 0.0
2017-Sep-21 02:56N 33°44' W 118°16'0 0.0
2017-Sep-21 02:30N 33°44' W 118°16'0 0.0
2017-Sep-21 01:58N 33°44' W 118°16'0 0.0
2017-Sep-21 01:28N 33°44' W 118°16'2 3.5
2017-Sep-21 01:00N 33°43' W 118°14'3 6.3
2017-Sep-21 00:29N 33°46' W 118°13'0 0.7
2017-Sep-21 00:00N 33°46' W 118°13'0 0.3
2017-Sep-20 23:30N 33°46' W 118°13'2 3.2
2017-Sep-20 23:00N 33°45' W 118°13'1 2.4
2017-Sep-20 22:26N 33°44' W 118°12'3 5.3
2017-Sep-20 21:55N 33°43' W 118°15'1 2.9
2017-Sep-20 21:30N 33°44' W 118°16'0 0.0
2017-Sep-20 20:58N 33°44' W 118°16'0 0.0
2017-Sep-20 20:30N 33°44' W 118°16'0 0.0
2017-Sep-20 20:00N 33°44' W 118°16'0 0.0
2017-Sep-20 19:30N 33°44' W 118°16'0 0.0
2017-Sep-20 18:59N 33°44' W 118°16'0 0.0
2017-Sep-20 18:29N 33°44' W 118°16'0 0.0
2017-Sep-20 18:00N 33°44' W 118°16'0 0.0
2017-Sep-20 17:30N 33°44' W 118°16'0 0.0
2017-Sep-20 17:00N 33°44' W 118°16'0 0.0
2017-Sep-20 16:28N 33°44' W 118°16'0 0.0
2017-Sep-20 15:49N 33°44' W 118°16'0 0.0
2017-Sep-20 15:20N 33°44' W 118°16'1 1.1
2017-Sep-20 14:53N 33°44' W 118°15'1 1.6
2017-Sep-20 13:57N 33°45' W 118°16'1 1.2
2017-Sep-20 13:14N 33°46' W 118°16'0 0.0
2017-Sep-20 12:54N 33°46' W 118°16'2 3.8
2017-Sep-20 12:23N 33°44' W 118°16'1 1.5
2017-Sep-20 11:46N 33°44' W 118°15'0 1.0
2017-Sep-20 11:25N 33°44' W 118°16'1 2.2
2017-Sep-20 10:54N 33°43' W 118°15'1 2.9
2017-Sep-20 10:26N 33°44' W 118°16'0 0.0
2017-Sep-20 09:50N 33°44' W 118°16'0 0.0
2017-Sep-20 09:16N 33°44' W 118°16'0 0.0
2017-Sep-20 08:57N 33°44' W 118°16'0 0.0
2017-Sep-20 08:19N 33°44' W 118°16'0 0.0
2017-Sep-20 07:53N 33°44' W 118°16'0 0.0
2017-Sep-20 07:28N 33°44' W 118°16'0 0.0
2017-Sep-20 06:55N 33°44' W 118°16'0 0.0
2017-Sep-20 06:20N 33°44' W 118°16'0 0.0
2017-Sep-20 06:00N 33°44' W 118°16'0 0.0
2017-Sep-20 05:26N 33°44' W 118°16'0 0.0
2017-Sep-20 05:00N 33°44' W 118°16'0 0.0
2017-Sep-20 04:30N 33°44' W 118°16'0 0.0
2017-Sep-20 03:59N 33°44' W 118°16'0 0.0
2017-Sep-20 03:27N 33°44' W 118°16'0 0.0
2017-Sep-20 02:57N 33°44' W 118°16'0 0.0
2017-Sep-20 02:27N 33°44' W 118°16'0 0.0
2017-Sep-20 01:59N 33°44' W 118°16'0 0.0
2017-Sep-20 01:08N 33°44' W 118°16'0 0.0
2017-Sep-20 00:57N 33°44' W 118°16'0 0.0
2017-Sep-20 00:26N 33°44' W 118°16'0 0.0
2017-Sep-20 00:00N 33°44' W 118°16'0 0.0
2017-Sep-19 23:29N 33°44' W 118°16'0 0.0
2017-Sep-19 22:58N 33°44' W 118°16'0 0.0
2017-Sep-19 22:28N 33°44' W 118°16'0 0.0
2017-Sep-19 21:59N 33°44' W 118°16'0 0.0
2017-Sep-19 21:29N 33°44' W 118°16'0 0.0
2017-Sep-19 20:46N 33°44' W 118°16'0 0.0
2017-Sep-19 20:30N 33°44' W 118°16'0 0.5
2017-Sep-19 19:59N 33°44' W 118°15'1 2.0
2017-Sep-19 19:28N 33°43' W 118°16'1 1.1
2017-Sep-19 19:00N 33°43' W 118°15'1 2.4
2017-Sep-19 18:29N 33°44' W 118°16'0 0.0
2017-Sep-19 17:44N 33°44' W 118°16'0 0.0
2017-Sep-19 17:14N 33°44' W 118°16'0 0.0
2017-Sep-19 16:58N 33°44' W 118°16'0 0.0
2017-Sep-19 16:26N 33°44' W 118°16'0 0.0
2017-Sep-19 15:41N 33°44' W 118°16'0 0.0
2017-Sep-19 15:08N 33°44' W 118°16'0 0.0
2017-Sep-19 14:44N 33°44' W 118°16'0 0.0
2017-Sep-19 14:26N 33°44' W 118°16'0 0.0
2017-Sep-19 13:58N 33°44' W 118°16'0 0.0
2017-Sep-19 13:00N 33°44' W 118°16'0 0.2
2017-Sep-19 12:07N 33°44' W 118°16'0 2.2
2017-Sep-19 12:00N 33°44' W 118°15'0 0.1
2017-Sep-19 11:27N 33°44' W 118°15'0 0.1
2017-Sep-19 10:59N 33°44' W 118°15'0 0.7
2017-Sep-19 10:28N 33°44' W 118°16'0 0.0
2017-Sep-19 09:12N 33°44' W 118°16'0 0.0
2017-Sep-19 08:59N 33°44' W 118°16'0 0.0
2017-Sep-19 08:30N 33°44' W 118°16'0 0.0
2017-Sep-19 07:59N 33°44' W 118°16'0 0.0
2017-Sep-19 07:26N 33°44' W 118°16'0 0.0
2017-Sep-19 06:55N 33°44' W 118°16'0 0.0
2017-Sep-19 06:17N 33°44' W 118°16'0 0.0
2017-Sep-19 05:59N 33°44' W 118°16'0 0.0
2017-Sep-19 05:29N 33°44' W 118°16'0 0.0
2017-Sep-19 04:49N 33°44' W 118°16'0 0.0
2017-Sep-19 04:25N 33°44' W 118°16'0 0.0
2017-Sep-19 04:00N 33°44' W 118°16'0 0.0
2017-Sep-19 03:30N 33°44' W 118°16'0 0.0
2017-Sep-19 02:59N 33°44' W 118°16'0 0.0
2017-Sep-19 02:21N 33°44' W 118°16'0 0.0
2017-Sep-19 01:55N 33°44' W 118°16'0 0.0
2017-Sep-19 01:30N 33°44' W 118°16'0 0.0
2017-Sep-19 00:59N 33°44' W 118°16'0 0.0
2017-Sep-19 00:30N 33°44' W 118°16'0 0.0
2017-Sep-18 23:58N 33°44' W 118°16'0 0.0
2017-Sep-18 23:28N 33°44' W 118°16'0 0.0
2017-Sep-18 22:55N 33°44' W 118°16'0 0.0
2017-Sep-18 22:11N 33°44' W 118°16'0 0.0
2017-Sep-18 22:00N 33°44' W 118°16'2 3.5
2017-Sep-18 21:27N 33°44' W 118°13'1 3.1
2017-Sep-18 20:59N 33°46' W 118°13'0 0.0
2017-Sep-18 20:28N 33°46' W 118°13'0 0.0
2017-Sep-18 20:00N 33°46' W 118°13'0 0.0
2017-Sep-18 19:30N 33°46' W 118°13'1 1.7
2017-Sep-18 18:58N 33°45' W 118°13'2 4.1
2017-Sep-18 18:23N 33°44' W 118°10'0 0.4
2017-Sep-18 17:56N 33°44' W 118°10'2 4.0
2017-Sep-18 17:27N 33°44' W 118°12'1 1.8
2017-Sep-18 16:54N 33°45' W 118°13'0 0.0
2017-Sep-18 16:27N 33°45' W 118°13'0 0.0
2017-Sep-18 16:00N 33°45' W 118°13'0 0.4
2017-Sep-18 15:24N 33°45' W 118°13'1 2.3
2017-Sep-18 15:00N 33°44' W 118°13'1 0.9
2017-Sep-18 14:25N 33°45' W 118°13'2 4.3
2017-Sep-18 14:01N 33°46' W 118°15'1 1.2
2017-Sep-18 13:29N 33°46' W 118°15'0 0.1
2017-Sep-18 13:00N 33°46' W 118°15'1 2.3
2017-Sep-18 12:24N 33°45' W 118°16'2 4.9
2017-Sep-18 11:56N 33°43' W 118°15'0 0.7
2017-Sep-18 11:29N 33°43' W 118°15'1 2.6
2017-Sep-18 10:59N 33°44' W 118°16'0 0.0
2017-Sep-18 10:24N 33°44' W 118°16'0 0.0
2017-Sep-18 09:44N 33°44' W 118°16'0 0.0
2017-Sep-18 09:20N 33°44' W 118°16'0 0.0
2017-Sep-18 08:52N 33°44' W 118°16'0 0.0
2017-Sep-18 08:26N 33°44' W 118°16'0 0.0
2017-Sep-18 08:00N 33°44' W 118°16'0 0.0
2017-Sep-18 07:30N 33°44' W 118°16'0 0.0
2017-Sep-18 06:57N 33°44' W 118°16'0 0.0
2017-Sep-18 06:05N 33°44' W 118°16'0 0.0
2017-Sep-18 05:54N 33°44' W 118°16'0 0.0
2017-Sep-18 05:29N 33°44' W 118°16'0 0.0
2017-Sep-18 04:47N 33°44' W 118°16'0 0.0
2017-Sep-18 04:18N 33°44' W 118°16'0 0.0
2017-Sep-18 03:58N 33°44' W 118°16'0 0.0
2017-Sep-18 03:27N 33°44' W 118°16'0 0.0
2017-Sep-18 03:00N 33°44' W 118°16'0 0.0
2017-Sep-18 02:28N 33°44' W 118°16'0 0.0
2017-Sep-18 01:53N 33°44' W 118°16'0 0.0
2017-Sep-18 01:26N 33°44' W 118°16'0 0.0
2017-Sep-18 00:56N 33°44' W 118°16'0 0.0
2017-Sep-18 00:30N 33°44' W 118°16'0 0.0
2017-Sep-17 23:53N 33°44' W 118°16'0 0.0
2017-Sep-17 23:30N 33°44' W 118°16'0 0.0
2017-Sep-17 22:56N 33°44' W 118°16'0 0.0
2017-Sep-17 22:20N 33°44' W 118°16'0 0.0
2017-Sep-17 21:57N 33°44' W 118°16'0 0.0
2017-Sep-17 21:24N 33°44' W 118°16'0 0.0
2017-Sep-17 20:58N 33°44' W 118°16'0 0.0
2017-Sep-17 20:29N 33°44' W 118°16'0 0.0
2017-Sep-17 19:59N 33°44' W 118°16'0 0.0
2017-Sep-17 19:25N 33°44' W 118°16'0 0.0
2017-Sep-17 18:45N 33°44' W 118°16'0 0.0
2017-Sep-17 17:47N 33°44' W 118°16'0 0.0
2017-Sep-17 17:23N 33°44' W 118°16'0 0.0
2017-Sep-17 17:00N 33°44' W 118°16'0 0.0
2017-Sep-17 16:07N 33°44' W 118°16'0 0.0
2017-Sep-17 15:54N 33°44' W 118°16'0 0.0
2017-Sep-17 15:28N 33°44' W 118°16'0 0.0
2017-Sep-17 14:35N 33°44' W 118°16'0 0.0
2017-Sep-17 14:09N 33°44' W 118°16'0 0.0
2017-Sep-17 13:51N 33°44' W 118°16'0 0.0
2017-Sep-17 13:27N 33°44' W 118°16'0 0.0
2017-Sep-17 12:16N 33°44' W 118°16'0 0.0
2017-Sep-17 10:58N 33°44' W 118°16'0 0.0
2017-Sep-17 09:56N 33°44' W 118°16'0 0.0
2017-Sep-17 09:05N 33°44' W 118°16'0 0.0
2017-Sep-17 08:14N 33°44' W 118°16'0 0.0
2017-Sep-17 08:00N 33°44' W 118°16'0 0.0
2017-Sep-17 07:23N 33°44' W 118°16'0 0.0
2017-Sep-17 07:00N 33°44' W 118°16'0 0.0
2017-Sep-17 06:30N 33°44' W 118°16'0 0.0
2017-Sep-17 06:00N 33°44' W 118°16'0 0.0
2017-Sep-17 05:07N 33°44' W 118°16'0 0.0
2017-Sep-17 04:56N 33°44' W 118°16'0 0.0
2017-Sep-17 04:25N 33°44' W 118°16'0 0.0
2017-Sep-17 04:00N 33°44' W 118°16'0 0.0
2017-Sep-17 03:24N 33°44' W 118°16'0 0.0
2017-Sep-17 02:44N 33°44' W 118°16'0 0.0
2017-Sep-17 02:30N 33°44' W 118°16'0 0.0
2017-Sep-17 01:32N 33°44' W 118°16'0 0.0
2017-Sep-17 01:22N 33°44' W 118°16'1 2.3
2017-Sep-17 00:54N 33°45' W 118°16'1 1.0
2017-Sep-17 00:16N 33°45' W 118°17'0 0.1
2017-Sep-16 23:59N 33°45' W 118°17'1 2.1
2017-Sep-16 23:30N 33°44' W 118°17'1 1.8
2017-Sep-16 23:00N 33°44' W 118°16'0 0.0
2017-Sep-16 22:24N 33°44' W 118°16'0 0.0
2017-Sep-16 21:55N 33°44' W 118°16'0 0.0
2017-Sep-16 21:30N 33°44' W 118°16'0 0.0
2017-Sep-16 20:55N 33°44' W 118°16'0 0.0
2017-Sep-16 20:24N 33°44' W 118°16'0 0.0
2017-Sep-16 19:59N 33°44' W 118°16'0 0.0
2017-Sep-16 19:29N 33°44' W 118°16'0 0.0
2017-Sep-16 18:52N 33°44' W 118°16'0 0.0
2017-Sep-16 18:30N 33°44' W 118°16'0 0.0
2017-Sep-16 17:54N 33°44' W 118°16'0 0.0
2017-Sep-16 17:28N 33°44' W 118°16'0 0.0
2017-Sep-16 16:58N 33°44' W 118°16'0 0.0
2017-Sep-16 16:29N 33°44' W 118°16'1 0.4
2017-Sep-16 13:11N 33°45' W 118°16'1 4.4
2017-Sep-16 12:57N 33°44' W 118°17'2 3.7
2017-Sep-16 12:27N 33°43' W 118°15'0 0.0
2017-Sep-16 11:59N 33°43' W 118°15'0 0.2
2017-Sep-16 11:26N 33°43' W 118°15'1 2.1
2017-Sep-16 10:59N 33°43' W 118°16'0 0.6
2017-Sep-16 10:21N 33°44' W 118°16'0 0.3
2017-Sep-16 09:54N 33°44' W 118°16'0 0.0
2017-Sep-16 09:27N 33°44' W 118°16'0 0.0
2017-Sep-16 08:56N 33°44' W 118°16'0 0.0
2017-Sep-16 08:19N 33°44' W 118°16'0 0.0
2017-Sep-16 07:59N 33°44' W 118°16'0 0.0
2017-Sep-16 07:19N 33°44' W 118°16'0 0.0
2017-Sep-16 06:55N 33°44' W 118°16'0 0.0
2017-Sep-16 06:30N 33°44' W 118°16'0 0.0
2017-Sep-16 05:56N 33°44' W 118°16'0 0.0
2017-Sep-16 05:21N 33°44' W 118°16'0 0.0
2017-Sep-16 04:59N 33°44' W 118°16'0 0.0
2017-Sep-16 04:26N 33°44' W 118°16'0 0.0
2017-Sep-16 03:51N 33°44' W 118°16'0 0.0
2017-Sep-16 03:29N 33°44' W 118°16'0 0.0
2017-Sep-16 02:58N 33°44' W 118°16'0 0.0
2017-Sep-16 02:29N 33°44' W 118°16'1 1.6
2017-Sep-16 01:59N 33°43' W 118°16'2 2.9
2017-Sep-16 01:27N 33°45' W 118°16'1 3.2
2017-Sep-16 01:00N 33°43' W 118°16'1 0.9
2017-Sep-16 00:23N 33°44' W 118°16'0 0.0
2017-Sep-15 23:58N 33°44' W 118°16'0 0.1
2017-Sep-15 23:31N 33°44' W 118°16'1 2.2
2017-Sep-15 22:53N 33°45' W 118°16'1 2.3
2017-Sep-15 22:29N 33°46' W 118°15'1 2.5
2017-Sep-15 22:00N 33°45' W 118°16'2 4.5
2017-Sep-15 21:29N 33°43' W 118°15'0 0.3
2017-Sep-15 20:55N 33°43' W 118°15'1 2.3
2017-Sep-15 20:28N 33°44' W 118°16'0 0.0
2017-Sep-15 19:59N 33°44' W 118°16'0 0.0
2017-Sep-15 19:29N 33°44' W 118°16'0 0.0
2017-Sep-15 19:00N 33°44' W 118°16'0 0.0
2017-Sep-15 18:30N 33°44' W 118°16'0 0.0
2017-Sep-15 17:59N 33°44' W 118°16'0 0.0
2017-Sep-15 17:25N 33°44' W 118°16'0 0.3
2017-Sep-15 16:19N 33°44' W 118°16'3 6.4
2017-Sep-15 15:53N 33°45' W 118°13'1 3.5
2017-Sep-15 15:30N 33°47' W 118°13'3 4.7
2017-Sep-15 14:57N 33°44' W 118°13'2 4.0
2017-Sep-15 14:25N 33°44' W 118°16'0 0.0
2017-Sep-15 13:57N 33°44' W 118°16'0 0.4
2017-Sep-15 13:28N 33°44' W 118°16'0 0.2
2017-Sep-15 12:54N 33°44' W 118°16'0 0.0
2017-Sep-15 12:30N 33°44' W 118°16'0 0.0
2017-Sep-15 11:57N 33°44' W 118°16'0 0.0
2017-Sep-15 11:28N 33°44' W 118°16'0 0.0
2017-Sep-15 10:39N 33°44' W 118°16'0 0.0
2017-Sep-15 10:29N 33°44' W 118°16'0 0.0
2017-Sep-15 10:00N 33°44' W 118°16'0 0.0
2017-Sep-15 09:27N 33°44' W 118°16'0 0.0
2017-Sep-15 08:57N 33°44' W 118°16'0 0.0
2017-Sep-15 08:28N 33°44' W 118°16'0 0.0
2017-Sep-15 07:59N 33°44' W 118°16'0 0.0
2017-Sep-15 07:30N 33°44' W 118°16'0 0.0
2017-Sep-15 07:00N 33°44' W 118°16'0 0.0
2017-Sep-15 06:29N 33°44' W 118°16'0 0.0
2017-Sep-15 06:00N 33°44' W 118°16'0 0.0
2017-Sep-15 05:26N 33°44' W 118°16'0 0.0
2017-Sep-15 04:49N 33°44' W 118°16'0 0.0
2017-Sep-15 04:23N 33°44' W 118°16'0 0.0
2017-Sep-15 03:59N 33°44' W 118°16'0 0.0
2017-Sep-15 03:30N 33°44' W 118°16'0 0.0
2017-Sep-15 02:52N 33°44' W 118°16'0 0.0
2017-Sep-15 02:28N 33°44' W 118°16'0 0.0
2017-Sep-15 01:59N 33°44' W 118°16'0 0.0
2017-Sep-15 01:28N 33°44' W 118°16'0 0.0
2017-Sep-15 00:58N 33°44' W 118°16'0 0.0
2017-Sep-15 00:28N 33°44' W 118°16'0 0.0
2017-Sep-14 23:59N 33°44' W 118°16'0 0.0
2017-Sep-14 23:26N 33°44' W 118°16'0 0.0
2017-Sep-14 22:55N 33°44' W 118°16'0 0.0
2017-Sep-14 22:28N 33°44' W 118°16'0 0.0
2017-Sep-14 21:58N 33°44' W 118°16'0 0.0
2017-Sep-14 21:27N 33°44' W 118°16'0 0.0
2017-Sep-14 20:57N 33°44' W 118°16'0 0.0
2017-Sep-14 20:30N 33°44' W 118°16'0 0.0
2017-Sep-14 19:59N 33°44' W 118°16'0 0.0
2017-Sep-14 19:30N 33°44' W 118°16'0 0.0
2017-Sep-14 18:56N 33°44' W 118°16'0 0.0
2017-Sep-14 18:30N 33°44' W 118°16'0 0.0
2017-Sep-14 18:00N 33°44' W 118°16'0 0.0
2017-Sep-14 17:30N 33°44' W 118°16'0 0.0
2017-Sep-14 16:56N 33°44' W 118°16'0 0.0
2017-Sep-14 16:29N 33°44' W 118°16'0 0.0
2017-Sep-14 15:59N 33°44' W 118°16'0 0.0
2017-Sep-14 15:28N 33°44' W 118°16'2 4.6
2017-Sep-14 14:58N 33°44' W 118°13'1 1.4
2017-Sep-14 14:26N 33°45' W 118°13'  
Track history (hours):
 
Tides and Currents Weather Stations Pressure Air Temp Water Temp Dewpoint Dewpoint Depression Visibility Wind Speed Wind Dir Waves Ship Positions

Millenium Maverick

Last reported at 2017-Sep-24 14:00 UTC. Time now 2017-Sep-24 14:10 UTC.
Position N 33°44' W 118°16'.

Length 29 m; draft 5.5 m.

Type: Towing. MMSI: 366998840.

Date/timePositionNaut miles runAvg speedWind from/ knotsBaromVisibWave heightAir tempDewpointWater temp
2017-Sep-24 14:00N 33°44' W 118°16'0 0.0
2017-Sep-24 13:30N 33°44' W 118°16'0 0.0
2017-Sep-24 13:00N 33°44' W 118°16'1 2.3
2017-Sep-24 12:30N 33°45' W 118°16'1 1.7
2017-Sep-24 12:00N 33°46' W 118°17'2 3.9
2017-Sep-24 11:30N 33°44' W 118°16'0 0.0
2017-Sep-24 11:01N 33°44' W 118°16'0 0.0
2017-Sep-24 10:30N 33°44' W 118°16'0 0.0
2017-Sep-24 10:00N 33°44' W 118°16'0 0.0
2017-Sep-24 09:30N 33°44' W 118°16'0 0.0
2017-Sep-24 09:00N 33°44' W 118°16'0 0.0
2017-Sep-24 08:30N 33°44' W 118°16'0 0.0
2017-Sep-24 08:01N 33°44' W 118°16'0 0.0
2017-Sep-24 06:58N 33°44' W 118°16'0 0.0
2017-Sep-24 06:30N 33°44' W 118°16'0 0.0
2017-Sep-24 05:58N 33°44' W 118°16'0 0.0
2017-Sep-24 05:30N 33°44' W 118°16'0 0.0
2017-Sep-24 05:01N 33°44' W 118°16'0 0.0
2017-Sep-24 04:30N 33°44' W 118°16'0 0.0
2017-Sep-24 04:01N 33°44' W 118°16'0 0.0
2017-Sep-24 03:30N 33°44' W 118°16'0 0.0
2017-Sep-24 03:00N 33°44' W 118°16'0 0.0
2017-Sep-24 02:30N 33°44' W 118°16'0 0.0
2017-Sep-24 01:57N 33°44' W 118°16'0 0.0
2017-Sep-24 01:30N 33°44' W 118°16'0 0.0
2017-Sep-24 01:00N 33°44' W 118°16'0 0.0
2017-Sep-24 00:30N 33°44' W 118°16'0 0.0
2017-Sep-24 00:01N 33°44' W 118°16'0 0.0
2017-Sep-23 23:30N 33°44' W 118°16'0 0.0
2017-Sep-23 23:00N 33°44' W 118°16'0 0.0
2017-Sep-23 22:30N 33°44' W 118°16'0 0.0
2017-Sep-23 21:58N 33°44' W 118°16'0 0.0
2017-Sep-23 21:30N 33°44' W 118°16'0 0.0
2017-Sep-23 21:00N 33°44' W 118°16'0 0.0
2017-Sep-23 20:29N 33°44' W 118°16'0 0.0
2017-Sep-23 19:58N 33°44' W 118°16'0 0.0
2017-Sep-22 01:34N 33°44' W 118°16'0 0.0
2017-Sep-22 01:11N 33°44' W 118°16'0 0.0
2017-Sep-22 00:46N 33°44' W 118°16'0 0.0
2017-Sep-22 00:23N 33°44' W 118°16'0 0.0
2017-Sep-21 23:57N 33°44' W 118°16'1 1.1
2017-Sep-21 23:29N 33°43' W 118°16'2 3.4
2017-Sep-21 22:55N 33°45' W 118°16'0 0.9
2017-Sep-21 22:28N 33°45' W 118°16'2 5.0
2017-Sep-21 21:58N 33°43' W 118°15'1 2.9
2017-Sep-21 21:30N 33°44' W 118°16'0 0.0
2017-Sep-21 20:57N 33°44' W 118°16'0 0.0
2017-Sep-21 20:25N 33°44' W 118°16'0 0.0
2017-Sep-21 19:45N 33°44' W 118°16'0 0.0
2017-Sep-21 19:26N 33°44' W 118°16'0 0.0
2017-Sep-21 18:47N 33°44' W 118°16'0 0.0
2017-Sep-21 18:30N 33°44' W 118°16'0 0.0
2017-Sep-21 17:58N 33°44' W 118°16'0 0.0
2017-Sep-21 17:30N 33°44' W 118°16'3 6.5
2017-Sep-21 17:00N 33°44' W 118°12'2 3.5
2017-Sep-21 16:30N 33°44' W 118°10'2 3.8
2017-Sep-21 15:59N 33°44' W 118°12'1 0.3
2017-Sep-21 14:12N 33°45' W 118°12'2 9.8
2017-Sep-21 14:00N 33°43' W 118°14'3 4.1
2017-Sep-21 13:15N 33°45' W 118°17'0 0.5
2017-Sep-21 12:54N 33°45' W 118°16'2 1.8
2017-Sep-21 12:04N 33°44' W 118°16'0 0.3
2017-Sep-21 11:51N 33°44' W 118°16'1 1.1
2017-Sep-21 11:15N 33°44' W 118°16'1 1.7
2017-Sep-21 10:31N 33°45' W 118°16'0 3.9
2017-Sep-21 10:27N 33°45' W 118°16'3 5.3
2017-Sep-21 09:58N 33°43' W 118°15'1 2.8
2017-Sep-21 09:28N 33°44' W 118°16'0 0.0
2017-Sep-21 08:52N 33°44' W 118°16'0 0.0
2017-Sep-21 08:27N 33°44' W 118°16'0 0.0
2017-Sep-21 07:46N 33°44' W 118°16'0 0.0
2017-Sep-21 07:27N 33°44' W 118°16'0 0.0
2017-Sep-21 06:46N 33°44' W 118°16'0 0.0
2017-Sep-21 06:30N 33°44' W 118°16'0 0.0
2017-Sep-21 06:00N 33°44' W 118°16'0 0.0
2017-Sep-21 05:19N 33°44' W 118°16'0 0.0
2017-Sep-21 04:59N 33°44' W 118°16'0 0.0
2017-Sep-21 04:21N 33°44' W 118°16'0 0.0
2017-Sep-21 03:55N 33°44' W 118°16'0 0.0
2017-Sep-21 03:28N 33°44' W 118°16'0 0.0
2017-Sep-21 02:56N 33°44' W 118°16'0 0.0
2017-Sep-21 02:30N 33°44' W 118°16'0 0.0
2017-Sep-21 01:58N 33°44' W 118°16'0 0.0
2017-Sep-21 01:28N 33°44' W 118°16'2 3.5
2017-Sep-21 01:00N 33°43' W 118°14'3 6.3
2017-Sep-21 00:29N 33°46' W 118°13'0 0.7
2017-Sep-21 00:00N 33°46' W 118°13'0 0.3
2017-Sep-20 23:30N 33°46' W 118°13'2 3.2
2017-Sep-20 23:00N 33°45' W 118°13'1 2.4
2017-Sep-20 22:26N 33°44' W 118°12'3 5.3
2017-Sep-20 21:55N 33°43' W 118°15'1 2.9
2017-Sep-20 21:30N 33°44' W 118°16'0 0.0
2017-Sep-20 20:58N 33°44' W 118°16'0 0.0
2017-Sep-20 20:30N 33°44' W 118°16'0 0.0
2017-Sep-20 20:00N 33°44' W 118°16'0 0.0
2017-Sep-20 19:30N 33°44' W 118°16'0 0.0
2017-Sep-20 18:59N 33°44' W 118°16'0 0.0
2017-Sep-20 18:29N 33°44' W 118°16'0 0.0
2017-Sep-20 18:00N 33°44' W 118°16'0 0.0
2017-Sep-20 17:30N 33°44' W 118°16'0 0.0
2017-Sep-20 17:00N 33°44' W 118°16'0 0.0
2017-Sep-20 16:28N 33°44' W 118°16'0 0.0
2017-Sep-20 15:49N 33°44' W 118°16'0 0.0
2017-Sep-20 15:20N 33°44' W 118°16'1 1.1
2017-Sep-20 14:53N 33°44' W 118°15'1 1.6
2017-Sep-20 13:57N 33°45' W 118°16'1 1.2
2017-Sep-20 13:14N 33°46' W 118°16'0 0.0
2017-Sep-20 12:54N 33°46' W 118°16'2 3.8
2017-Sep-20 12:23N 33°44' W 118°16'1 1.5
2017-Sep-20 11:46N 33°44' W 118°15'0 1.0
2017-Sep-20 11:25N 33°44' W 118°16'1 2.2
2017-Sep-20 10:54N 33°43' W 118°15'1 2.9
2017-Sep-20 10:26N 33°44' W 118°16'0 0.0
2017-Sep-20 09:50N 33°44' W 118°16'0 0.0
2017-Sep-20 09:16N 33°44' W 118°16'0 0.0
2017-Sep-20 08:57N 33°44' W 118°16'0 0.0
2017-Sep-20 08:19N 33°44' W 118°16'0 0.0
2017-Sep-20 07:53N 33°44' W 118°16'0 0.0
2017-Sep-20 07:28N 33°44' W 118°16'0 0.0
2017-Sep-20 06:55N 33°44' W 118°16'0 0.0
2017-Sep-20 06:20N 33°44' W 118°16'0 0.0
2017-Sep-20 06:00N 33°44' W 118°16'0 0.0
2017-Sep-20 05:26N 33°44' W 118°16'0 0.0
2017-Sep-20 05:00N 33°44' W 118°16'0 0.0
2017-Sep-20 04:30N 33°44' W 118°16'0 0.0
2017-Sep-20 03:59N 33°44' W 118°16'0 0.0
2017-Sep-20 03:27N 33°44' W 118°16'0 0.0
2017-Sep-20 02:57N 33°44' W 118°16'0 0.0
2017-Sep-20 02:27N 33°44' W 118°16'0 0.0
2017-Sep-20 01:59N 33°44' W 118°16'0 0.0
2017-Sep-20 01:08N 33°44' W 118°16'0 0.0
2017-Sep-20 00:57N 33°44' W 118°16'0 0.0
2017-Sep-20 00:26N 33°44' W 118°16'0 0.0
2017-Sep-20 00:00N 33°44' W 118°16'0 0.0
2017-Sep-19 23:29N 33°44' W 118°16'0 0.0
2017-Sep-19 22:58N 33°44' W 118°16'0 0.0
2017-Sep-19 22:28N 33°44' W 118°16'0 0.0
2017-Sep-19 21:59N 33°44' W 118°16'0 0.0
2017-Sep-19 21:29N 33°44' W 118°16'0 0.0
2017-Sep-19 20:46N 33°44' W 118°16'0 0.0
2017-Sep-19 20:30N 33°44' W 118°16'0 0.5
2017-Sep-19 19:59N 33°44' W 118°15'1 2.0
2017-Sep-19 19:28N 33°43' W 118°16'1 1.1
2017-Sep-19 19:00N 33°43' W 118°15'1 2.4
2017-Sep-19 18:29N 33°44' W 118°16'0 0.0
2017-Sep-19 17:44N 33°44' W 118°16'0 0.0
2017-Sep-19 17:14N 33°44' W 118°16'0 0.0
2017-Sep-19 16:58N 33°44' W 118°16'0 0.0
2017-Sep-19 16:26N 33°44' W 118°16'0 0.0
2017-Sep-19 15:41N 33°44' W 118°16'0 0.0
2017-Sep-19 15:08N 33°44' W 118°16'0 0.0
2017-Sep-19 14:44N 33°44' W 118°16'0 0.0
2017-Sep-19 14:26N 33°44' W 118°16'0 0.0
2017-Sep-19 13:58N 33°44' W 118°16'0 0.0
2017-Sep-19 13:00N 33°44' W 118°16'0 0.2
2017-Sep-19 12:07N 33°44' W 118°16'0 2.2
2017-Sep-19 12:00N 33°44' W 118°15'0 0.1
2017-Sep-19 11:27N 33°44' W 118°15'0 0.1
2017-Sep-19 10:59N 33°44' W 118°15'0 0.7
2017-Sep-19 10:28N 33°44' W 118°16'0 0.0
2017-Sep-19 09:12N 33°44' W 118°16'0 0.0
2017-Sep-19 08:59N 33°44' W 118°16'0 0.0
2017-Sep-19 08:30N 33°44' W 118°16'0 0.0
2017-Sep-19 07:59N 33°44' W 118°16'0 0.0
2017-Sep-19 07:26N 33°44' W 118°16'0 0.0
2017-Sep-19 06:55N 33°44' W 118°16'0 0.0
2017-Sep-19 06:17N 33°44' W 118°16'0 0.0
2017-Sep-19 05:59N 33°44' W 118°16'0 0.0
2017-Sep-19 05:29N 33°44' W 118°16'0 0.0
2017-Sep-19 04:49N 33°44' W 118°16'0 0.0
2017-Sep-19 04:25N 33°44' W 118°16'0 0.0
2017-Sep-19 04:00N 33°44' W 118°16'0 0.0
2017-Sep-19 03:30N 33°44' W 118°16'0 0.0
2017-Sep-19 02:59N 33°44' W 118°16'0 0.0
2017-Sep-19 02:21N 33°44' W 118°16'0 0.0
2017-Sep-19 01:55N 33°44' W 118°16'0 0.0
2017-Sep-19 01:30N 33°44' W 118°16'0 0.0
2017-Sep-19 00:59N 33°44' W 118°16'0 0.0
2017-Sep-19 00:30N 33°44' W 118°16'0 0.0
2017-Sep-18 23:58N 33°44' W 118°16'0 0.0
2017-Sep-18 23:28N 33°44' W 118°16'0 0.0
2017-Sep-18 22:55N 33°44' W 118°16'0 0.0
2017-Sep-18 22:11N 33°44' W 118°16'0 0.0
2017-Sep-18 22:00N 33°44' W 118°16'2 3.5
2017-Sep-18 21:27N 33°44' W 118°13'1 3.1
2017-Sep-18 20:59N 33°46' W 118°13'0 0.0
2017-Sep-18 20:28N 33°46' W 118°13'0 0.0
2017-Sep-18 20:00N 33°46' W 118°13'0 0.0
2017-Sep-18 19:30N 33°46' W 118°13'1 1.7
2017-Sep-18 18:58N 33°45' W 118°13'2 4.1
2017-Sep-18 18:23N 33°44' W 118°10'0 0.4
2017-Sep-18 17:56N 33°44' W 118°10'2 4.0
2017-Sep-18 17:27N 33°44' W 118°12'1 1.8
2017-Sep-18 16:54N 33°45' W 118°13'0 0.0
2017-Sep-18 16:27N 33°45' W 118°13'0 0.0
2017-Sep-18 16:00N 33°45' W 118°13'0 0.4
2017-Sep-18 15:24N 33°45' W 118°13'1 2.3
2017-Sep-18 15:00N 33°44' W 118°13'1 0.9
2017-Sep-18 14:25N 33°45' W 118°13'2 4.3
2017-Sep-18 14:01N 33°46' W 118°15'1 1.2
2017-Sep-18 13:29N 33°46' W 118°15'0 0.1
2017-Sep-18 13:00N 33°46' W 118°15'1 2.3
2017-Sep-18 12:24N 33°45' W 118°16'2 4.9
2017-Sep-18 11:56N 33°43' W 118°15'0 0.7
2017-Sep-18 11:29N 33°43' W 118°15'1 2.6
2017-Sep-18 10:59N 33°44' W 118°16'0 0.0
2017-Sep-18 10:24N 33°44' W 118°16'0 0.0
2017-Sep-18 09:44N 33°44' W 118°16'0 0.0
2017-Sep-18 09:20N 33°44' W 118°16'0 0.0
2017-Sep-18 08:52N 33°44' W 118°16'0 0.0
2017-Sep-18 08:26N 33°44' W 118°16'0 0.0
2017-Sep-18 08:00N 33°44' W 118°16'0 0.0
2017-Sep-18 07:30N 33°44' W 118°16'0 0.0
2017-Sep-18 06:57N 33°44' W 118°16'0 0.0
2017-Sep-18 06:05N 33°44' W 118°16'0 0.0
2017-Sep-18 05:54N 33°44' W 118°16'0 0.0
2017-Sep-18 05:29N 33°44' W 118°16'0 0.0
2017-Sep-18 04:47N 33°44' W 118°16'0 0.0
2017-Sep-18 04:18N 33°44' W 118°16'0 0.0
2017-Sep-18 03:58N 33°44' W 118°16'0 0.0
2017-Sep-18 03:27N 33°44' W 118°16'0 0.0
2017-Sep-18 03:00N 33°44' W 118°16'0 0.0
2017-Sep-18 02:28N 33°44' W 118°16'0 0.0
2017-Sep-18 01:53N 33°44' W 118°16'0 0.0
2017-Sep-18 01:26N 33°44' W 118°16'0 0.0
2017-Sep-18 00:56N 33°44' W 118°16'0 0.0
2017-Sep-18 00:30N 33°44' W 118°16'0 0.0
2017-Sep-17 23:53N 33°44' W 118°16'0 0.0
2017-Sep-17 23:30N 33°44' W 118°16'0 0.0
2017-Sep-17 22:56N 33°44' W 118°16'0 0.0
2017-Sep-17 22:20N 33°44' W 118°16'0 0.0
2017-Sep-17 21:57N 33°44' W 118°16'0 0.0
2017-Sep-17 21:24N 33°44' W 118°16'0 0.0
2017-Sep-17 20:58N 33°44' W 118°16'0 0.0
2017-Sep-17 20:29N 33°44' W 118°16'0 0.0
2017-Sep-17 19:59N 33°44' W 118°16'0 0.0
2017-Sep-17 19:25N 33°44' W 118°16'0 0.0
2017-Sep-17 18:45N 33°44' W 118°16'0 0.0
2017-Sep-17 17:47N 33°44' W 118°16'0 0.0
2017-Sep-17 17:23N 33°44' W 118°16'0 0.0
2017-Sep-17 17:00N 33°44' W 118°16'0 0.0
2017-Sep-17 16:07N 33°44' W 118°16'0 0.0
2017-Sep-17 15:54N 33°44' W 118°16'0 0.0
2017-Sep-17 15:28N 33°44' W 118°16'0 0.0
2017-Sep-17 14:35N 33°44' W 118°16'0 0.0
2017-Sep-17 14:09N 33°44' W 118°16'0 0.0
2017-Sep-17 13:51N 33°44' W 118°16'0 0.0
2017-Sep-17 13:27N 33°44' W 118°16'0 0.0
2017-Sep-17 12:16N 33°44' W 118°16'0 0.0
2017-Sep-17 10:58N 33°44' W 118°16'0 0.0
2017-Sep-17 09:56N 33°44' W 118°16'0 0.0
2017-Sep-17 09:05N 33°44' W 118°16'0 0.0
2017-Sep-17 08:14N 33°44' W 118°16'0 0.0
2017-Sep-17 08:00N 33°44' W 118°16'0 0.0
2017-Sep-17 07:23N 33°44' W 118°16'0 0.0
2017-Sep-17 07:00N 33°44' W 118°16'0 0.0
2017-Sep-17 06:30N 33°44' W 118°16'0 0.0
2017-Sep-17 06:00N 33°44' W 118°16'0 0.0
2017-Sep-17 05:07N 33°44' W 118°16'0 0.0
2017-Sep-17 04:56N 33°44' W 118°16'0 0.0
2017-Sep-17 04:25N 33°44' W 118°16'0 0.0
2017-Sep-17 04:00N 33°44' W 118°16'0 0.0
2017-Sep-17 03:24N 33°44' W 118°16'0 0.0
2017-Sep-17 02:44N 33°44' W 118°16'0 0.0
2017-Sep-17 02:30N 33°44' W 118°16'0 0.0
2017-Sep-17 01:32N 33°44' W 118°16'0 0.0
2017-Sep-17 01:22N 33°44' W 118°16'1 2.3
2017-Sep-17 00:54N 33°45' W 118°16'1 1.0
2017-Sep-17 00:16N 33°45' W 118°17'0 0.1
2017-Sep-16 23:59N 33°45' W 118°17'1 2.1
2017-Sep-16 23:30N 33°44' W 118°17'1 1.8
2017-Sep-16 23:00N 33°44' W 118°16'0 0.0
2017-Sep-16 22:24N 33°44' W 118°16'0 0.0
2017-Sep-16 21:55N 33°44' W 118°16'0 0.0
2017-Sep-16 21:30N 33°44' W 118°16'0 0.0
2017-Sep-16 20:55N 33°44' W 118°16'0 0.0
2017-Sep-16 20:24N 33°44' W 118°16'0 0.0
2017-Sep-16 19:59N 33°44' W 118°16'0 0.0
2017-Sep-16 19:29N 33°44' W 118°16'0 0.0
2017-Sep-16 18:52N 33°44' W 118°16'0 0.0
2017-Sep-16 18:30N 33°44' W 118°16'0 0.0
2017-Sep-16 17:54N 33°44' W 118°16'0 0.0
2017-Sep-16 17:28N 33°44' W 118°16'0 0.0
2017-Sep-16 16:58N 33°44' W 118°16'0 0.0
2017-Sep-16 16:29N 33°44' W 118°16'1 0.4
2017-Sep-16 13:11N 33°45' W 118°16'1 4.4
2017-Sep-16 12:57N 33°44' W 118°17'2 3.7
2017-Sep-16 12:27N 33°43' W 118°15'0 0.0
2017-Sep-16 11:59N 33°43' W 118°15'0 0.2
2017-Sep-16 11:26N 33°43' W 118°15'1 2.1
2017-Sep-16 10:59N 33°43' W 118°16'0 0.6
2017-Sep-16 10:21N 33°44' W 118°16'0 0.3
2017-Sep-16 09:54N 33°44' W 118°16'0 0.0
2017-Sep-16 09:27N 33°44' W 118°16'0 0.0
2017-Sep-16 08:56N 33°44' W 118°16'0 0.0
2017-Sep-16 08:19N 33°44' W 118°16'0 0.0
2017-Sep-16 07:59N 33°44' W 118°16'0 0.0
2017-Sep-16 07:19N 33°44' W 118°16'0 0.0
2017-Sep-16 06:55N 33°44' W 118°16'0 0.0
2017-Sep-16 06:30N 33°44' W 118°16'0 0.0
2017-Sep-16 05:56N 33°44' W 118°16'0 0.0
2017-Sep-16 05:21N 33°44' W 118°16'0 0.0
2017-Sep-16 04:59N 33°44' W 118°16'0 0.0
2017-Sep-16 04:26N 33°44' W 118°16'0 0.0
2017-Sep-16 03:51N 33°44' W 118°16'0 0.0
2017-Sep-16 03:29N 33°44' W 118°16'0 0.0
2017-Sep-16 02:58N 33°44' W 118°16'0 0.0
2017-Sep-16 02:29N 33°44' W 118°16'1 1.6
2017-Sep-16 01:59N 33°43' W 118°16'2 2.9
2017-Sep-16 01:27N 33°45' W 118°16'1 3.2
2017-Sep-16 01:00N 33°43' W 118°16'1 0.9
2017-Sep-16 00:23N 33°44' W 118°16'0 0.0
2017-Sep-15 23:58N 33°44' W 118°16'0 0.1
2017-Sep-15 23:31N 33°44' W 118°16'1 2.2
2017-Sep-15 22:53N 33°45' W 118°16'1 2.3
2017-Sep-15 22:29N 33°46' W 118°15'1 2.5
2017-Sep-15 22:00N 33°45' W 118°16'2 4.5
2017-Sep-15 21:29N 33°43' W 118°15'0 0.3
2017-Sep-15 20:55N 33°43' W 118°15'1 2.3
2017-Sep-15 20:28N 33°44' W 118°16'0 0.0
2017-Sep-15 19:59N 33°44' W 118°16'0 0.0
2017-Sep-15 19:29N 33°44' W 118°16'0 0.0
2017-Sep-15 19:00N 33°44' W 118°16'0 0.0
2017-Sep-15 18:30N 33°44' W 118°16'0 0.0
2017-Sep-15 17:59N 33°44' W 118°16'0 0.0
2017-Sep-15 17:25N 33°44' W 118°16'0 0.3
2017-Sep-15 16:19N 33°44' W 118°16'3 6.4
2017-Sep-15 15:53N 33°45' W 118°13'1 3.5
2017-Sep-15 15:30N 33°47' W 118°13'3 4.7
2017-Sep-15 14:57N 33°44' W 118°13'2 4.0
2017-Sep-15 14:25N 33°44' W 118°16'0 0.0
2017-Sep-15 13:57N 33°44' W 118°16'0 0.4
2017-Sep-15 13:28N 33°44' W 118°16'0 0.2
2017-Sep-15 12:54N 33°44' W 118°16'0 0.0
2017-Sep-15 12:30N 33°44' W 118°16'0 0.0
2017-Sep-15 11:57N 33°44' W 118°16'0 0.0
2017-Sep-15 11:28N 33°44' W 118°16'0 0.0
2017-Sep-15 10:39N 33°44' W 118°16'0 0.0
2017-Sep-15 10:29N 33°44' W 118°16'0 0.0
2017-Sep-15 10:00N 33°44' W 118°16'0 0.0
2017-Sep-15 09:27N 33°44' W 118°16'0 0.0
2017-Sep-15 08:57N 33°44' W 118°16'0 0.0
2017-Sep-15 08:28N 33°44' W 118°16'0 0.0
2017-Sep-15 07:59N 33°44' W 118°16'0 0.0
2017-Sep-15 07:30N 33°44' W 118°16'0 0.0
2017-Sep-15 07:00N 33°44' W 118°16'0 0.0
2017-Sep-15 06:29N 33°44' W 118°16'0 0.0
2017-Sep-15 06:00N 33°44' W 118°16'0 0.0
2017-Sep-15 05:26N 33°44' W 118°16'0 0.0
2017-Sep-15 04:49N 33°44' W 118°16'0 0.0
2017-Sep-15 04:23N 33°44' W 118°16'0 0.0
2017-Sep-15 03:59N 33°44' W 118°16'0 0.0
2017-Sep-15 03:30N 33°44' W 118°16'0 0.0
2017-Sep-15 02:52N 33°44' W 118°16'0 0.0
2017-Sep-15 02:28N 33°44' W 118°16'0 0.0
2017-Sep-15 01:59N 33°44' W 118°16'0 0.0
2017-Sep-15 01:28N 33°44' W 118°16'0 0.0
2017-Sep-15 00:58N 33°44' W 118°16'0 0.0
2017-Sep-15 00:28N 33°44' W 118°16'0 0.0
2017-Sep-14 23:59N 33°44' W 118°16'0 0.0
2017-Sep-14 23:26N 33°44' W 118°16'0 0.0
2017-Sep-14 22:55N 33°44' W 118°16'0 0.0
2017-Sep-14 22:28N 33°44' W 118°16'0 0.0
2017-Sep-14 21:58N 33°44' W 118°16'0 0.0
2017-Sep-14 21:27N 33°44' W 118°16'0 0.0
2017-Sep-14 20:57N 33°44' W 118°16'0 0.0
2017-Sep-14 20:30N 33°44' W 118°16'0 0.0
2017-Sep-14 19:59N 33°44' W 118°16'0 0.0
2017-Sep-14 19:30N 33°44' W 118°16'0 0.0
2017-Sep-14 18:56N 33°44' W 118°16'0 0.0
2017-Sep-14 18:30N 33°44' W 118°16'0 0.0
2017-Sep-14 18:00N 33°44' W 118°16'0 0.0
2017-Sep-14 17:30N 33°44' W 118°16'0 0.0
2017-Sep-14 16:56N 33°44' W 118°16'0 0.0
2017-Sep-14 16:29N 33°44' W 118°16'0 0.0
2017-Sep-14 15:59N 33°44' W 118°16'0 0.0
2017-Sep-14 15:28N 33°44' W 118°16'2 4.6
2017-Sep-14 14:58N 33°44' W 118°13'1 1.4
2017-Sep-14 14:26N 33°45' W 118°13'  

Dump ship's entire track history